Portada
METAR-TAF:

METAR-TAF

Aeroports :

Wellington, Nova Zelanda

latitud: 41-20S, longitud: 174-48E, altitud: 12 m

Observació

L'informe es va fer fa 16 minuts, a les 18:30 UTC
Vent 1 kt del Oest
Temperatura 16°C
Humitat 77%
Pressió 1014 hPa
Visibilitat 10 km o més

METAR: NZWN 041830Z AUTO 26001KT 9999 OVC037/// 16/12 Q1014 NOSIG

Hora: 07:46 (18:46 UTC)

Pronòstic

L'informe es va fer fa 1 hora i 34 minuts, a les 17:12 UTC
Pronòstic vàlid del 04 a les 18 UTC al 06 a les 00 UTC
Vent 2 kt amb direcció variable
Visibilitat 10 km o més
Núvols disperses a una alçada de 2000 ft
Evolucionant progressivament
l' 05 a les 01 UTC al 05 a les 03 UTC
Vent 12 kt del Nord
Evolucionant progressivament
l' 05 a les 06 UTC al 05 a les 08 UTC
Vent 18 kt del Nord amb ràfegues de 28 kt

TAF: NZWN 041712Z 0418/0600 VRB02KT 9999 SCT020 BECMG 0501/0503 36012KT BECMG 0506/0508 36018G28KT

Observacions i pronòstics meteorològics de més de 4000 aeroports (METAR i TAF).

Les estacions disponibles són els punts grocs i vermells al mapa.

Posi el ratolí al punt desitjat per veure el nom de l'estació.

Feu clic per veure les observacions i els pronòstics meteorològics.

Per canviar el mapa: feu clic els botons verds amb una creu de color negre per apropar; al botó verd amb un guió per allunyar la imatge; o en les fletxes verdes per a mapes adjacents.


METAR-TAF: